sensor_id;sensor_type;location;lat;lon;timestamp;pressure;altitude;pressure_sealevel;temperature
10598;BMP180;5346;48.766;8.674;2022-08-19T00:02:04;93870.00;;;17.90
10598;BMP180;5346;48.766;8.674;2022-08-19T00:04:34;93877.00;;;17.90
10598;BMP180;5346;48.766;8.674;2022-08-19T00:07:05;93863.00;;;17.90
10598;BMP180;5346;48.766;8.674;2022-08-19T00:09:39;93860.00;;;18.10
10598;BMP180;5346;48.766;8.674;2022-08-19T00:12:07;93864.00;;;18.10
10598;BMP180;5346;48.766;8.674;2022-08-19T00:14:36;93867.00;;;18.00
10598;BMP180;5346;48.766;8.674;2022-08-19T00:17:09;93860.00;;;17.80
10598;BMP180;5346;48.766;8.674;2022-08-19T00:19:38;93862.00;;;18.00
10598;BMP180;5346;48.766;8.674;2022-08-19T00:22:06;93863.00;;;18.00
10598;BMP180;5346;48.766;8.674;2022-08-19T00:24:44;93877.00;;;17.80
10598;BMP180;5346;48.766;8.674;2022-08-19T00:27:17;93867.00;;;17.90
10598;BMP180;5346;48.766;8.674;2022-08-19T00:29:53;93865.00;;;17.90
10598;BMP180;5346;48.766;8.674;2022-08-19T00:32:21;93858.00;;;17.90
10598;BMP180;5346;48.766;8.674;2022-08-19T00:34:50;93852.00;;;18.10
10598;BMP180;5346;48.766;8.674;2022-08-19T00:37:27;93833.00;;;17.80
10598;BMP180;5346;48.766;8.674;2022-08-19T00:39:54;93828.00;;;17.80
10598;BMP180;5346;48.766;8.674;2022-08-19T00:42:23;93823.00;;;17.80
10598;BMP180;5346;48.766;8.674;2022-08-19T00:44:57;93822.00;;;17.80
10598;BMP180;5346;48.766;8.674;2022-08-19T00:47:24;93826.00;;;17.90
10598;BMP180;5346;48.766;8.674;2022-08-19T00:49:56;93828.00;;;17.90
10598;BMP180;5346;48.766;8.674;2022-08-19T00:52:35;93819.00;;;17.90
10598;BMP180;5346;48.766;8.674;2022-08-19T00:55:06;93820.00;;;17.80
10598;BMP180;5346;48.766;8.674;2022-08-19T00:57:51;93817.00;;;17.80
10598;BMP180;5346;48.766;8.674;2022-08-19T01:00:23;93831.00;;;18.00
10598;BMP180;5346;48.766;8.674;2022-08-19T01:02:58;93837.00;;;17.70
10598;BMP180;5346;48.766;8.674;2022-08-19T01:05:28;93844.00;;;17.80
10598;BMP180;5346;48.766;8.674;2022-08-19T01:07:58;93838.00;;;17.70
10598;BMP180;5346;48.766;8.674;2022-08-19T01:10:38;93838.00;;;17.70
10598;BMP180;5346;48.766;8.674;2022-08-19T01:13:07;93839.00;;;17.70
10598;BMP180;5346;48.766;8.674;2022-08-19T01:16:00;93834.00;;;17.70
10598;BMP180;5346;48.766;8.674;2022-08-19T01:18:29;93831.00;;;17.60
10598;BMP180;5346;48.766;8.674;2022-08-19T01:23:59;93831.00;;;17.60
10598;BMP180;5346;48.766;8.674;2022-08-19T01:26:40;93831.00;;;17.70
10598;BMP180;5346;48.766;8.674;2022-08-19T01:29:10;93832.00;;;17.60
10598;BMP180;5346;48.766;8.674;2022-08-19T01:31:46;93823.00;;;17.50
10598;BMP180;5346;48.766;8.674;2022-08-19T01:34:20;93829.00;;;17.80
10598;BMP180;5346;48.766;8.674;2022-08-19T01:37:09;93835.00;;;17.60
10598;BMP180;5346;48.766;8.674;2022-08-19T01:39:40;93834.00;;;17.60
10598;BMP180;5346;48.766;8.674;2022-08-19T01:42:14;93826.00;;;17.60
10598;BMP180;5346;48.766;8.674;2022-08-19T01:44:42;93831.00;;;17.60
10598;BMP180;5346;48.766;8.674;2022-08-19T01:47:10;93837.00;;;17.60
10598;BMP180;5346;48.766;8.674;2022-08-19T01:49:44;93833.00;;;17.60
10598;BMP180;5346;48.766;8.674;2022-08-19T01:52:11;93831.00;;;17.60
10598;BMP180;5346;48.766;8.674;2022-08-19T01:54:39;93833.00;;;17.50
10598;BMP180;5346;48.766;8.674;2022-08-19T01:57:14;93821.00;;;17.40
10598;BMP180;5346;48.766;8.674;2022-08-19T01:59:42;93817.00;;;17.70
10598;BMP180;5346;48.766;8.674;2022-08-19T02:02:11;93819.00;;;17.70
10598;BMP180;5346;48.766;8.674;2022-08-19T02:04:44;93819.00;;;17.50
10598;BMP180;5346;48.766;8.674;2022-08-19T02:07:13;93819.00;;;17.60
10598;BMP180;5346;48.766;8.674;2022-08-19T02:09:41;93829.00;;;17.50
10598;BMP180;5346;48.766;8.674;2022-08-19T02:12:15;93829.00;;;17.40
10598;BMP180;5346;48.766;8.674;2022-08-19T02:14:43;93827.00;;;17.50
10598;BMP180;5346;48.766;8.674;2022-08-19T02:17:11;93827.00;;;17.50
10598;BMP180;5346;48.766;8.674;2022-08-19T02:19:45;93825.00;;;17.40
10598;BMP180;5346;48.766;8.674;2022-08-19T02:22:13;93827.00;;;17.30
10598;BMP180;5346;48.766;8.674;2022-08-19T02:24:41;93820.00;;;17.40
10598;BMP180;5346;48.766;8.674;2022-08-19T02:27:15;93825.00;;;17.40
10598;BMP180;5346;48.766;8.674;2022-08-19T02:29:45;93823.00;;;17.40
10598;BMP180;5346;48.766;8.674;2022-08-19T02:32:13;93829.00;;;17.30
10598;BMP180;5346;48.766;8.674;2022-08-19T02:34:53;93814.00;;;17.30
10598;BMP180;5346;48.766;8.674;2022-08-19T02:37:21;93810.00;;;17.30
10598;BMP180;5346;48.766;8.674;2022-08-19T02:40:14;93816.00;;;17.20
10598;BMP180;5346;48.766;8.674;2022-08-19T02:42:42;93814.00;;;17.30
10598;BMP180;5346;48.766;8.674;2022-08-19T02:45:10;93812.00;;;17.30
10598;BMP180;5346;48.766;8.674;2022-08-19T02:47:44;93806.00;;;17.20
10598;BMP180;5346;48.766;8.674;2022-08-19T02:50:13;93811.00;;;17.10
10598;BMP180;5346;48.766;8.674;2022-08-19T02:52:41;93808.00;;;17.30
10598;BMP180;5346;48.766;8.674;2022-08-19T02:55:15;93816.00;;;17.10
10598;BMP180;5346;48.766;8.674;2022-08-19T02:57:43;93817.00;;;17.10
10598;BMP180;5346;48.766;8.674;2022-08-19T03:00:11;93820.00;;;16.90
10598;BMP180;5346;48.766;8.674;2022-08-19T03:02:46;93816.00;;;17.10
10598;BMP180;5346;48.766;8.674;2022-08-19T03:05:14;93815.00;;;16.90
10598;BMP180;5346;48.766;8.674;2022-08-19T03:07:41;93817.00;;;17.00
10598;BMP180;5346;48.766;8.674;2022-08-19T03:10:16;93820.00;;;17.00
10598;BMP180;5346;48.766;8.674;2022-08-19T03:12:43;93824.00;;;17.10
10598;BMP180;5346;48.766;8.674;2022-08-19T03:15:12;93826.00;;;17.10
10598;BMP180;5346;48.766;8.674;2022-08-19T03:17:46;93836.00;;;17.20
10598;BMP180;5346;48.766;8.674;2022-08-19T03:20:19;93832.00;;;17.10
10598;BMP180;5346;48.766;8.674;2022-08-19T03:22:53;93827.00;;;16.90
10598;BMP180;5346;48.766;8.674;2022-08-19T03:25:28;93826.00;;;17.00
10598;BMP180;5346;48.766;8.674;2022-08-19T03:28:03;93826.00;;;17.10
10598;BMP180;5346;48.766;8.674;2022-08-19T03:30:30;93817.00;;;17.10
10598;BMP180;5346;48.766;8.674;2022-08-19T03:32:59;93810.00;;;16.90
10598;BMP180;5346;48.766;8.674;2022-08-19T03:35:41;93808.00;;;16.90
10598;BMP180;5346;48.766;8.674;2022-08-19T03:38:09;93806.00;;;16.90
10598;BMP180;5346;48.766;8.674;2022-08-19T03:40:42;93817.00;;;16.80
10598;BMP180;5346;48.766;8.674;2022-08-19T03:43:11;93820.00;;;16.90
10598;BMP180;5346;48.766;8.674;2022-08-19T03:45:38;93825.00;;;16.90
10598;BMP180;5346;48.766;8.674;2022-08-19T03:48:13;93818.00;;;16.80
10598;BMP180;5346;48.766;8.674;2022-08-19T03:50:40;93808.00;;;16.90
10598;BMP180;5346;48.766;8.674;2022-08-19T03:53:08;93804.00;;;16.90
10598;BMP180;5346;48.766;8.674;2022-08-19T03:55:42;93798.00;;;16.80
10598;BMP180;5346;48.766;8.674;2022-08-19T03:58:10;93801.00;;;16.70
10598;BMP180;5346;48.766;8.674;2022-08-19T04:00:41;93806.00;;;16.80
10598;BMP180;5346;48.766;8.674;2022-08-19T04:03:16;93816.00;;;16.80
10598;BMP180;5346;48.766;8.674;2022-08-19T04:05:46;93813.00;;;16.80
10598;BMP180;5346;48.766;8.674;2022-08-19T04:08:15;93815.00;;;16.70
10598;BMP180;5346;48.766;8.674;2022-08-19T04:10:52;93814.00;;;16.90
10598;BMP180;5346;48.766;8.674;2022-08-19T04:13:20;93818.00;;;16.80
10598;BMP180;5346;48.766;8.674;2022-08-19T04:15:48;93808.00;;;16.80
10598;BMP180;5346;48.766;8.674;2022-08-19T04:18:23;93815.00;;;16.80
10598;BMP180;5346;48.766;8.674;2022-08-19T04:20:51;93807.00;;;16.90
10598;BMP180;5346;48.766;8.674;2022-08-19T04:23:19;93813.00;;;16.60
10598;BMP180;5346;48.766;8.674;2022-08-19T04:25:55;93818.00;;;16.70
10598;BMP180;5346;48.766;8.674;2022-08-19T04:28:24;93824.00;;;16.80
10598;BMP180;5346;48.766;8.674;2022-08-19T04:30:53;93832.00;;;16.70
10598;BMP180;5346;48.766;8.674;2022-08-19T04:33:27;93832.00;;;16.70
10598;BMP180;5346;48.766;8.674;2022-08-19T04:36:19;93832.00;;;16.80
10598;BMP180;5346;48.766;8.674;2022-08-19T04:38:59;93827.00;;;16.70
10598;BMP180;5346;48.766;8.674;2022-08-19T04:41:27;93823.00;;;16.70
10598;BMP180;5346;48.766;8.674;2022-08-19T04:44:20;93833.00;;;16.70
10598;BMP180;5346;48.766;8.674;2022-08-19T04:46:49;93828.00;;;16.70
10598;BMP180;5346;48.766;8.674;2022-08-19T04:49:20;93830.00;;;16.80
10598;BMP180;5346;48.766;8.674;2022-08-19T04:51:56;93831.00;;;16.70
10598;BMP180;5346;48.766;8.674;2022-08-19T04:54:25;93824.00;;;16.80
10598;BMP180;5346;48.766;8.674;2022-08-19T04:57:07;93822.00;;;16.70
10598;BMP180;5346;48.766;8.674;2022-08-19T04:59:42;93824.00;;;16.70
10598;BMP180;5346;48.766;8.674;2022-08-19T05:02:10;93819.00;;;16.70
10598;BMP180;5346;48.766;8.674;2022-08-19T05:04:37;93823.00;;;16.70
10598;BMP180;5346;48.766;8.674;2022-08-19T05:07:12;93830.00;;;16.60
10598;BMP180;5346;48.766;8.674;2022-08-19T05:09:40;93823.00;;;16.80
10598;BMP180;5346;48.766;8.674;2022-08-19T05:12:25;93827.00;;;16.80
10598;BMP180;5346;48.766;8.674;2022-08-19T05:15:03;93834.00;;;16.80
10598;BMP180;5346;48.766;8.674;2022-08-19T05:17:32;93846.00;;;16.70
10598;BMP180;5346;48.766;8.674;2022-08-19T05:20:05;93846.00;;;16.90
10598;BMP180;5346;48.766;8.674;2022-08-19T05:22:59;93860.00;;;16.80
10598;BMP180;5346;48.766;8.674;2022-08-19T05:25:27;93870.00;;;16.80
10598;BMP180;5346;48.766;8.674;2022-08-19T05:27:54;93870.00;;;16.80
10598;BMP180;5346;48.766;8.674;2022-08-19T05:30:29;93873.00;;;16.70
10598;BMP180;5346;48.766;8.674;2022-08-19T05:33:13;93891.00;;;16.80
10598;BMP180;5346;48.766;8.674;2022-08-19T05:35:48;93900.00;;;16.70
10598;BMP180;5346;48.766;8.674;2022-08-19T05:38:23;93897.00;;;16.70
10598;BMP180;5346;48.766;8.674;2022-08-19T05:40:56;93906.00;;;16.90
10598;BMP180;5346;48.766;8.674;2022-08-19T05:43:24;93913.00;;;16.90
10598;BMP180;5346;48.766;8.674;2022-08-19T05:45:52;93902.00;;;16.90
10598;BMP180;5346;48.766;8.674;2022-08-19T05:48:26;93906.00;;;16.80
10598;BMP180;5346;48.766;8.674;2022-08-19T05:50:54;93901.00;;;16.90
10598;BMP180;5346;48.766;8.674;2022-08-19T05:53:22;93904.00;;;16.90
10598;BMP180;5346;48.766;8.674;2022-08-19T05:55:57;93904.00;;;17.00
10598;BMP180;5346;48.766;8.674;2022-08-19T05:58:25;93902.00;;;17.00
10598;BMP180;5346;48.766;8.674;2022-08-19T06:00:54;93904.00;;;17.20
10598;BMP180;5346;48.766;8.674;2022-08-19T06:03:28;93907.00;;;17.10
10598;BMP180;5346;48.766;8.674;2022-08-19T06:05:56;93906.00;;;17.00
10598;BMP180;5346;48.766;8.674;2022-08-19T06:08:27;93913.00;;;17.20
10598;BMP180;5346;48.766;8.674;2022-08-19T06:11:32;93910.00;;;17.30
10598;BMP180;5346;48.766;8.674;2022-08-19T06:14:03;93903.00;;;17.20
10598;BMP180;5346;48.766;8.674;2022-08-19T06:16:43;93903.00;;;17.30
10598;BMP180;5346;48.766;8.674;2022-08-19T06:19:15;93900.00;;;17.30
10598;BMP180;5346;48.766;8.674;2022-08-19T06:21:50;93903.00;;;17.40
10598;BMP180;5346;48.766;8.674;2022-08-19T06:24:23;93900.00;;;17.30
10598;BMP180;5346;48.766;8.674;2022-08-19T06:26:59;93899.00;;;17.50
10598;BMP180;5346;48.766;8.674;2022-08-19T06:29:29;93902.00;;;17.60
10598;BMP180;5346;48.766;8.674;2022-08-19T06:32:02;93901.00;;;17.80
10598;BMP180;5346;48.766;8.674;2022-08-19T06:34:43;93898.00;;;17.80
10598;BMP180;5346;48.766;8.674;2022-08-19T06:37:18;93900.00;;;17.80
10598;BMP180;5346;48.766;8.674;2022-08-19T06:39:51;93899.00;;;17.70
10598;BMP180;5346;48.766;8.674;2022-08-19T06:42:19;93891.00;;;17.80
10598;BMP180;5346;48.766;8.674;2022-08-19T06:44:50;93891.00;;;17.80
10598;BMP180;5346;48.766;8.674;2022-08-19T06:47:25;93889.00;;;18.00
10598;BMP180;5346;48.766;8.674;2022-08-19T06:49:59;93880.00;;;17.90
10598;BMP180;5346;48.766;8.674;2022-08-19T06:52:36;93885.00;;;18.00
10598;BMP180;5346;48.766;8.674;2022-08-19T06:55:05;93887.00;;;18.10
10598;BMP180;5346;48.766;8.674;2022-08-19T06:57:34;93891.00;;;18.10
10598;BMP180;5346;48.766;8.674;2022-08-19T07:00:08;93883.00;;;18.10
10598;BMP180;5346;48.766;8.674;2022-08-19T07:02:42;93890.00;;;18.20
10598;BMP180;5346;48.766;8.674;2022-08-19T07:05:25;93894.00;;;18.20
10598;BMP180;5346;48.766;8.674;2022-08-19T07:07:53;93896.00;;;18.20
10598;BMP180;5346;48.766;8.674;2022-08-19T07:10:31;93898.00;;;18.10
10598;BMP180;5346;48.766;8.674;2022-08-19T07:13:02;93888.00;;;18.00
10598;BMP180;5346;48.766;8.674;2022-08-19T07:15:37;93895.00;;;18.10
10598;BMP180;5346;48.766;8.674;2022-08-19T07:18:06;93897.00;;;18.20
10598;BMP180;5346;48.766;8.674;2022-08-19T07:20:39;93901.00;;;18.10
10598;BMP180;5346;48.766;8.674;2022-08-19T07:23:13;93903.00;;;18.20
10598;BMP180;5346;48.766;8.674;2022-08-19T07:25:43;93911.00;;;18.20
10598;BMP180;5346;48.766;8.674;2022-08-19T07:28:19;93905.00;;;18.50
10598;BMP180;5346;48.766;8.674;2022-08-19T07:30:54;93900.00;;;18.50
10598;BMP180;5346;48.766;8.674;2022-08-19T07:33:22;93914.00;;;18.70
10598;BMP180;5346;48.766;8.674;2022-08-19T07:36:05;93905.00;;;18.80
10598;BMP180;5346;48.766;8.674;2022-08-19T07:39:01;93907.00;;;19.10
10598;BMP180;5346;48.766;8.674;2022-08-19T07:41:33;93916.00;;;18.90
10598;BMP180;5346;48.766;8.674;2022-08-19T07:44:14;93925.00;;;18.90
10598;BMP180;5346;48.766;8.674;2022-08-19T07:46:49;93924.00;;;18.70
10598;BMP180;5346;48.766;8.674;2022-08-19T07:49:27;93921.00;;;18.60
10598;BMP180;5346;48.766;8.674;2022-08-19T07:52:03;93916.00;;;18.60
10598;BMP180;5346;48.766;8.674;2022-08-19T07:54:40;93923.00;;;18.50
10598;BMP180;5346;48.766;8.674;2022-08-19T07:57:08;93914.00;;;18.60
10598;BMP180;5346;48.766;8.674;2022-08-19T07:59:36;93914.00;;;18.60
10598;BMP180;5346;48.766;8.674;2022-08-19T08:02:11;93926.00;;;18.60
10598;BMP180;5346;48.766;8.674;2022-08-19T08:04:39;93922.00;;;18.80
10598;BMP180;5346;48.766;8.674;2022-08-19T08:07:32;93911.00;;;19.10
10598;BMP180;5346;48.766;8.674;2022-08-19T08:10:18;93901.00;;;19.40
10598;BMP180;5346;48.766;8.674;2022-08-19T08:12:53;93893.00;;;19.70
10598;BMP180;5346;48.766;8.674;2022-08-19T08:15:37;93894.00;;;20.40
10598;BMP180;5346;48.766;8.674;2022-08-19T08:18:13;93899.00;;;20.30
10598;BMP180;5346;48.766;8.674;2022-08-19T08:20:42;93908.00;;;20.40
10598;BMP180;5346;48.766;8.674;2022-08-19T08:23:10;93904.00;;;20.30
10598;BMP180;5346;48.766;8.674;2022-08-19T08:25:58;93914.00;;;20.00
10598;BMP180;5346;48.766;8.674;2022-08-19T08:28:27;93910.00;;;19.90
10598;BMP180;5346;48.766;8.674;2022-08-19T08:30:57;93914.00;;;20.00
10598;BMP180;5346;48.766;8.674;2022-08-19T08:33:36;93916.00;;;20.10
10598;BMP180;5346;48.766;8.674;2022-08-19T08:36:18;93915.00;;;20.30
10598;BMP180;5346;48.766;8.674;2022-08-19T08:38:53;93911.00;;;20.60
10598;BMP180;5346;48.766;8.674;2022-08-19T08:45:03;93937.00;;;20.30
10598;BMP180;5346;48.766;8.674;2022-08-19T08:47:36;93925.00;;;20.60
10598;BMP180;5346;48.766;8.674;2022-08-19T08:50:24;93930.00;;;20.30
10598;BMP180;5346;48.766;8.674;2022-08-19T08:52:56;93941.00;;;20.10
10598;BMP180;5346;48.766;8.674;2022-08-19T08:55:31;93943.00;;;20.40
10598;BMP180;5346;48.766;8.674;2022-08-19T08:58:12;93942.00;;;20.30
10598;BMP180;5346;48.766;8.674;2022-08-19T09:00:50;93946.00;;;20.40
10598;BMP180;5346;48.766;8.674;2022-08-19T09:03:26;93950.00;;;20.30
10598;BMP180;5346;48.766;8.674;2022-08-19T09:06:26;93948.00;;;20.30
10598;BMP180;5346;48.766;8.674;2022-08-19T09:09:15;93939.00;;;20.40
10598;BMP180;5346;48.766;8.674;2022-08-19T09:14:55;93944.00;;;20.80
10598;BMP180;5346;48.766;8.674;2022-08-19T09:17:32;93946.00;;;20.40
10598;BMP180;5346;48.766;8.674;2022-08-19T09:20:20;93936.00;;;20.60
10598;BMP180;5346;48.766;8.674;2022-08-19T09:22:55;93947.00;;;20.80
10598;BMP180;5346;48.766;8.674;2022-08-19T09:25:23;93946.00;;;20.60
10598;BMP180;5346;48.766;8.674;2022-08-19T09:27:56;93942.00;;;20.70
10598;BMP180;5346;48.766;8.674;2022-08-19T09:30:47;93946.00;;;20.60
10598;BMP180;5346;48.766;8.674;2022-08-19T09:33:15;93952.00;;;20.50
10598;BMP180;5346;48.766;8.674;2022-08-19T09:36:01;93952.00;;;20.50
10598;BMP180;5346;48.766;8.674;2022-08-19T09:38:37;93954.00;;;20.40
10598;BMP180;5346;48.766;8.674;2022-08-19T09:41:21;93954.00;;;20.60
10598;BMP180;5346;48.766;8.674;2022-08-19T09:43:52;93949.00;;;20.60
10598;BMP180;5346;48.766;8.674;2022-08-19T09:46:28;93951.00;;;20.80
10598;BMP180;5346;48.766;8.674;2022-08-19T09:48:59;93957.00;;;20.80
10598;BMP180;5346;48.766;8.674;2022-08-19T09:51:34;93963.00;;;20.70
10598;BMP180;5346;48.766;8.674;2022-08-19T09:54:04;93962.00;;;20.50
10598;BMP180;5346;48.766;8.674;2022-08-19T09:56:32;93967.00;;;20.60
10598;BMP180;5346;48.766;8.674;2022-08-19T09:59:08;93971.00;;;20.70
10598;BMP180;5346;48.766;8.674;2022-08-19T10:01:37;93961.00;;;21.10
10598;BMP180;5346;48.766;8.674;2022-08-19T10:04:06;93966.00;;;21.10
10598;BMP180;5346;48.766;8.674;2022-08-19T10:06:47;93964.00;;;21.00
10598;BMP180;5346;48.766;8.674;2022-08-19T10:09:20;93955.00;;;21.10
10598;BMP180;5346;48.766;8.674;2022-08-19T10:12:03;93956.00;;;21.50
10598;BMP180;5346;48.766;8.674;2022-08-19T10:14:32;93958.00;;;21.50
10598;BMP180;5346;48.766;8.674;2022-08-19T10:17:07;93949.00;;;22.00
10598;BMP180;5346;48.766;8.674;2022-08-19T10:19:46;93960.00;;;21.90
10598;BMP180;5346;48.766;8.674;2022-08-19T10:22:23;93953.00;;;21.80
10598;BMP180;5346;48.766;8.674;2022-08-19T10:24:52;93959.00;;;21.60
10598;BMP180;5346;48.766;8.674;2022-08-19T10:27:20;93951.00;;;21.80
10598;BMP180;5346;48.766;8.674;2022-08-19T10:29:58;93945.00;;;21.80
10598;BMP180;5346;48.766;8.674;2022-08-19T10:32:28;93957.00;;;21.50
10598;BMP180;5346;48.766;8.674;2022-08-19T10:35:09;93957.00;;;21.50
10598;BMP180;5346;48.766;8.674;2022-08-19T10:37:53;93951.00;;;21.70
10598;BMP180;5346;48.766;8.674;2022-08-19T10:40:32;93954.00;;;21.70
10598;BMP180;5346;48.766;8.674;2022-08-19T10:42:59;93963.00;;;21.60
10598;BMP180;5346;48.766;8.674;2022-08-19T10:45:27;93957.00;;;21.50
10598;BMP180;5346;48.766;8.674;2022-08-19T10:48:18;93968.00;;;21.20
10598;BMP180;5346;48.766;8.674;2022-08-19T10:50:48;93967.00;;;20.80
10598;BMP180;5346;48.766;8.674;2022-08-19T10:53:49;93940.00;;;21.40
10598;BMP180;5346;48.766;8.674;2022-08-19T10:56:18;93933.00;;;22.50
10598;BMP180;5346;48.766;8.674;2022-08-19T10:59:11;93939.00;;;22.70
10598;BMP180;5346;48.766;8.674;2022-08-19T11:01:43;93936.00;;;22.70
10598;BMP180;5346;48.766;8.674;2022-08-19T11:04:22;93942.00;;;22.50
10598;BMP180;5346;48.766;8.674;2022-08-19T11:06:56;93914.00;;;22.80
10598;BMP180;5346;48.766;8.674;2022-08-19T11:09:36;93909.00;;;23.10
10598;BMP180;5346;48.766;8.674;2022-08-19T11:12:05;93905.00;;;23.40
10598;BMP180;5346;48.766;8.674;2022-08-19T11:14:41;93926.00;;;23.30
10598;BMP180;5346;48.766;8.674;2022-08-19T11:17:08;93926.00;;;23.30
10598;BMP180;5346;48.766;8.674;2022-08-19T11:19:39;93919.00;;;22.60
10598;BMP180;5346;48.766;8.674;2022-08-19T11:22:14;93925.00;;;22.70
10598;BMP180;5346;48.766;8.674;2022-08-19T11:24:45;93904.00;;;23.10
10598;BMP180;5346;48.766;8.674;2022-08-19T11:27:13;93902.00;;;24.20
10598;BMP180;5346;48.766;8.674;2022-08-19T11:29:48;93895.00;;;24.60
10598;BMP180;5346;48.766;8.674;2022-08-19T11:32:16;93892.00;;;25.10
10598;BMP180;5346;48.766;8.674;2022-08-19T11:34:44;93900.00;;;25.20
10598;BMP180;5346;48.766;8.674;2022-08-19T11:37:25;93910.00;;;25.60
10598;BMP180;5346;48.766;8.674;2022-08-19T11:39:54;93915.00;;;25.00
10598;BMP180;5346;48.766;8.674;2022-08-19T11:42:31;93919.00;;;23.70
10598;BMP180;5346;48.766;8.674;2022-08-19T11:45:38;93906.00;;;23.70
10598;BMP180;5346;48.766;8.674;2022-08-19T11:48:13;93915.00;;;24.00
10598;BMP180;5346;48.766;8.674;2022-08-19T11:50:40;93920.00;;;24.10
10598;BMP180;5346;48.766;8.674;2022-08-19T11:53:10;93930.00;;;24.70
10598;BMP180;5346;48.766;8.674;2022-08-19T11:55:45;93939.00;;;23.90
10598;BMP180;5346;48.766;8.674;2022-08-19T11:58:15;93936.00;;;23.70
10598;BMP180;5346;48.766;8.674;2022-08-19T12:00:46;93940.00;;;23.60
10598;BMP180;5346;48.766;8.674;2022-08-19T12:03:20;93941.00;;;23.80
10598;BMP180;5346;48.766;8.674;2022-08-19T12:05:48;93941.00;;;23.80
10598;BMP180;5346;48.766;8.674;2022-08-19T12:08:18;93943.00;;;23.80
10598;BMP180;5346;48.766;8.674;2022-08-19T12:10:52;93949.00;;;23.80
10598;BMP180;5346;48.766;8.674;2022-08-19T12:13:19;93943.00;;;23.70
10598;BMP180;5346;48.766;8.674;2022-08-19T12:15:47;93942.00;;;23.30
10598;BMP180;5346;48.766;8.674;2022-08-19T12:18:26;93937.00;;;23.40
10598;BMP180;5346;48.766;8.674;2022-08-19T12:20:54;93935.00;;;23.50
10598;BMP180;5346;48.766;8.674;2022-08-19T12:23:22;93924.00;;;24.00
10598;BMP180;5346;48.766;8.674;2022-08-19T12:25:57;93932.00;;;24.50
10598;BMP180;5346;48.766;8.674;2022-08-19T12:28:25;93940.00;;;24.30
10598;BMP180;5346;48.766;8.674;2022-08-19T12:30:53;93944.00;;;24.20
10598;BMP180;5346;48.766;8.674;2022-08-19T12:33:27;93955.00;;;23.70
10598;BMP180;5346;48.766;8.674;2022-08-19T12:36:01;93958.00;;;22.70
10598;BMP180;5346;48.766;8.674;2022-08-19T12:38:43;93961.00;;;22.60
10598;BMP180;5346;48.766;8.674;2022-08-19T12:41:17;93949.00;;;22.50
10598;BMP180;5346;48.766;8.674;2022-08-19T12:43:52;93956.00;;;22.70
10598;BMP180;5346;48.766;8.674;2022-08-19T12:46:21;93953.00;;;22.70
10598;BMP180;5346;48.766;8.674;2022-08-19T12:48:52;93949.00;;;22.60
10598;BMP180;5346;48.766;8.674;2022-08-19T12:51:42;93951.00;;;22.30
10598;BMP180;5346;48.766;8.674;2022-08-19T12:54:09;93952.00;;;22.10
10598;BMP180;5346;48.766;8.674;2022-08-19T12:56:45;93948.00;;;22.00
10598;BMP180;5346;48.766;8.674;2022-08-19T12:59:13;93959.00;;;22.20
10598;BMP180;5346;48.766;8.674;2022-08-19T13:01:41;93943.00;;;22.50
10598;BMP180;5346;48.766;8.674;2022-08-19T13:04:15;93945.00;;;23.00
10598;BMP180;5346;48.766;8.674;2022-08-19T13:06:43;93955.00;;;23.40
10598;BMP180;5346;48.766;8.674;2022-08-19T13:09:11;93963.00;;;23.10
10598;BMP180;5346;48.766;8.674;2022-08-19T13:11:45;93970.00;;;22.60
10598;BMP180;5346;48.766;8.674;2022-08-19T13:14:12;93987.00;;;22.70
10598;BMP180;5346;48.766;8.674;2022-08-19T13:16:40;93982.00;;;22.40
10598;BMP180;5346;48.766;8.674;2022-08-19T13:19:15;93977.00;;;22.30
10598;BMP180;5346;48.766;8.674;2022-08-19T13:21:43;93985.00;;;22.20
10598;BMP180;5346;48.766;8.674;2022-08-19T13:24:14;93993.00;;;22.10
10598;BMP180;5346;48.766;8.674;2022-08-19T13:26:53;93999.00;;;22.00
10598;BMP180;5346;48.766;8.674;2022-08-19T13:29:21;93990.00;;;21.80
10598;BMP180;5346;48.766;8.674;2022-08-19T13:32:14;93993.00;;;21.90
10598;BMP180;5346;48.766;8.674;2022-08-19T13:35:09;93990.00;;;21.90
10598;BMP180;5346;48.766;8.674;2022-08-19T13:37:43;93997.00;;;21.80
10598;BMP180;5346;48.766;8.674;2022-08-19T13:40:14;93984.00;;;21.90
10598;BMP180;5346;48.766;8.674;2022-08-19T13:42:53;93987.00;;;21.90
10598;BMP180;5346;48.766;8.674;2022-08-19T13:45:23;93979.00;;;21.90
10598;BMP180;5346;48.766;8.674;2022-08-19T13:47:58;93976.00;;;22.20
10598;BMP180;5346;48.766;8.674;2022-08-19T13:50:40;93975.00;;;22.40
10598;BMP180;5346;48.766;8.674;2022-08-19T13:53:29;93972.00;;;22.50
10598;BMP180;5346;48.766;8.674;2022-08-19T13:55:58;93965.00;;;22.50
10598;BMP180;5346;48.766;8.674;2022-08-19T13:58:33;93970.00;;;22.60
10598;BMP180;5346;48.766;8.674;2022-08-19T14:01:09;93967.00;;;22.30
10598;BMP180;5346;48.766;8.674;2022-08-19T14:03:43;93958.00;;;22.50
10598;BMP180;5346;48.766;8.674;2022-08-19T14:06:17;93960.00;;;22.60
10598;BMP180;5346;48.766;8.674;2022-08-19T14:08:52;93957.00;;;22.90
10598;BMP180;5346;48.766;8.674;2022-08-19T14:11:20;93949.00;;;22.90
10598;BMP180;5346;48.766;8.674;2022-08-19T14:13:51;93949.00;;;23.40
10598;BMP180;5346;48.766;8.674;2022-08-19T14:16:25;93950.00;;;23.30
10598;BMP180;5346;48.766;8.674;2022-08-19T14:18:54;93954.00;;;23.80
10598;BMP180;5346;48.766;8.674;2022-08-19T14:21:23;93944.00;;;24.20
10598;BMP180;5346;48.766;8.674;2022-08-19T14:23:59;93941.00;;;24.20
10598;BMP180;5346;48.766;8.674;2022-08-19T14:26:27;93949.00;;;23.90
10598;BMP180;5346;48.766;8.674;2022-08-19T14:28:58;93951.00;;;23.50
10598;BMP180;5346;48.766;8.674;2022-08-19T14:31:32;93962.00;;;23.30
10598;BMP180;5346;48.766;8.674;2022-08-19T14:34:00;93959.00;;;23.00
10598;BMP180;5346;48.766;8.674;2022-08-19T14:36:28;93958.00;;;22.80
10598;BMP180;5346;48.766;8.674;2022-08-19T14:39:06;93958.00;;;22.70
10598;BMP180;5346;48.766;8.674;2022-08-19T14:41:33;93959.00;;;22.60
10598;BMP180;5346;48.766;8.674;2022-08-19T14:44:01;93948.00;;;22.50
10598;BMP180;5346;48.766;8.674;2022-08-19T14:46:35;93952.00;;;22.50
10598;BMP180;5346;48.766;8.674;2022-08-19T14:49:03;93951.00;;;22.50
10598;BMP180;5346;48.766;8.674;2022-08-19T14:51:36;93955.00;;;22.50
10598;BMP180;5346;48.766;8.674;2022-08-19T14:54:10;93953.00;;;22.60
10598;BMP180;5346;48.766;8.674;2022-08-19T14:56:37;93949.00;;;22.90
10598;BMP180;5346;48.766;8.674;2022-08-19T14:59:07;93952.00;;;23.10
10598;BMP180;5346;48.766;8.674;2022-08-19T15:01:41;93948.00;;;23.20
10598;BMP180;5346;48.766;8.674;2022-08-19T15:04:09;93950.00;;;23.30
10598;BMP180;5346;48.766;8.674;2022-08-19T15:06:37;93947.00;;;23.50
10598;BMP180;5346;48.766;8.674;2022-08-19T15:09:12;93944.00;;;23.50